sensor_id;sensor_type;location;lat;lon;timestamp;temperature;humidity
68098;DHT22;54886;47.036;15.466;2024-02-16T00:00:02;3.75;74.32
68098;DHT22;54886;47.036;15.466;2024-02-16T00:02:28;3.69;74.76
68098;DHT22;54886;47.036;15.466;2024-02-16T00:04:54;3.72;75.11
68098;DHT22;54886;47.036;15.466;2024-02-16T00:07:20;3.68;74.92
68098;DHT22;54886;47.036;15.466;2024-02-16T00:09:45;3.59;75.36
68098;DHT22;54886;47.036;15.466;2024-02-16T00:12:11;3.59;75.43
68098;DHT22;54886;47.036;15.466;2024-02-16T00:14:36;3.64;75.49
68098;DHT22;54886;47.036;15.466;2024-02-16T00:17:02;3.56;75.18
68098;DHT22;54886;47.036;15.466;2024-02-16T00:19:28;3.52;74.68
68098;DHT22;54886;47.036;15.466;2024-02-16T00:21:53;3.42;75.18
68098;DHT22;54886;47.036;15.466;2024-02-16T00:24:19;3.34;75.71
68098;DHT22;54886;47.036;15.466;2024-02-16T00:26:44;3.41;75.31
68098;DHT22;54886;47.036;15.466;2024-02-16T00:29:11;3.37;75.30
68098;DHT22;54886;47.036;15.466;2024-02-16T00:31:36;3.37;75.62
68098;DHT22;54886;47.036;15.466;2024-02-16T00:34:02;3.26;75.62
68098;DHT22;54886;47.036;15.466;2024-02-16T00:36:27;3.28;75.45
68098;DHT22;54886;47.036;15.466;2024-02-16T00:38:53;3.32;75.58
68098;DHT22;54886;47.036;15.466;2024-02-16T00:41:22;3.16;75.62
68098;DHT22;54886;47.036;15.466;2024-02-16T00:43:49;3.14;75.68
68098;DHT22;54886;47.036;15.466;2024-02-16T00:46:15;3.11;75.69
68098;DHT22;54886;47.036;15.466;2024-02-16T00:48:41;3.14;76.11
68098;DHT22;54886;47.036;15.466;2024-02-16T00:51:06;3.07;75.89
68098;DHT22;54886;47.036;15.466;2024-02-16T00:53:31;3.07;75.90
68098;DHT22;54886;47.036;15.466;2024-02-16T00:55:57;3.07;75.90
68098;DHT22;54886;47.036;15.466;2024-02-16T00:58:22;3.04;76.00
68098;DHT22;54886;47.036;15.466;2024-02-16T01:00:47;3.00;76.08
68098;DHT22;54886;47.036;15.466;2024-02-16T01:03:13;2.91;76.11
68098;DHT22;54886;47.036;15.466;2024-02-16T01:05:39;2.93;75.79
68098;DHT22;54886;47.036;15.466;2024-02-16T01:08:05;2.93;75.97
68098;DHT22;54886;47.036;15.466;2024-02-16T01:10:31;2.92;76.06
68098;DHT22;54886;47.036;15.466;2024-02-16T01:12:56;2.95;75.91
68098;DHT22;54886;47.036;15.466;2024-02-16T01:15:22;3.00;75.93
68098;DHT22;54886;47.036;15.466;2024-02-16T01:17:47;3.07;75.67
68098;DHT22;54886;47.036;15.466;2024-02-16T01:20:12;3.11;75.74
68098;DHT22;54886;47.036;15.466;2024-02-16T01:22:40;3.14;75.71
68098;DHT22;54886;47.036;15.466;2024-02-16T01:25:06;3.04;75.85
68098;DHT22;54886;47.036;15.466;2024-02-16T01:27:32;3.00;75.79
68098;DHT22;54886;47.036;15.466;2024-02-16T01:29:57;2.99;75.74
68098;DHT22;54886;47.036;15.466;2024-02-16T01:32:23;2.85;76.18
68098;DHT22;54886;47.036;15.466;2024-02-16T01:34:49;2.85;76.18
68098;DHT22;54886;47.036;15.466;2024-02-16T01:37:15;2.88;75.92
68098;DHT22;54886;47.036;15.466;2024-02-16T01:39:40;2.83;75.85
68098;DHT22;54886;47.036;15.466;2024-02-16T01:42:06;2.78;76.10
68098;DHT22;54886;47.036;15.466;2024-02-16T01:44:31;2.71;76.17
68098;DHT22;54886;47.036;15.466;2024-02-16T01:46:58;2.65;76.74
68098;DHT22;54886;47.036;15.466;2024-02-16T01:49:23;2.66;76.40
68098;DHT22;54886;47.036;15.466;2024-02-16T01:51:49;2.65;76.11
68098;DHT22;54886;47.036;15.466;2024-02-16T01:54:15;2.66;76.29
68098;DHT22;54886;47.036;15.466;2024-02-16T01:56:43;2.56;76.65
68098;DHT22;54886;47.036;15.466;2024-02-16T01:59:09;2.51;76.48
68098;DHT22;54886;47.036;15.466;2024-02-16T02:01:35;2.61;76.19
68098;DHT22;54886;47.036;15.466;2024-02-16T02:04:01;2.44;76.57
68098;DHT22;54886;47.036;15.466;2024-02-16T02:06:27;2.41;76.50
68098;DHT22;54886;47.036;15.466;2024-02-16T02:08:52;2.44;76.43
68098;DHT22;54886;47.036;15.466;2024-02-16T02:11:18;2.38;76.68
68098;DHT22;54886;47.036;15.466;2024-02-16T02:13:43;2.34;76.64
68098;DHT22;54886;47.036;15.466;2024-02-16T02:16:10;2.42;76.33
68098;DHT22;54886;47.036;15.466;2024-02-16T02:18:35;2.37;76.45
68098;DHT22;54886;47.036;15.466;2024-02-16T02:21:01;2.31;76.48
68098;DHT22;54886;47.036;15.466;2024-02-16T02:23:26;2.36;76.58
68098;DHT22;54886;47.036;15.466;2024-02-16T02:25:52;2.44;76.52
68098;DHT22;54886;47.036;15.466;2024-02-16T02:28:18;2.37;76.59
68098;DHT22;54886;47.036;15.466;2024-02-16T02:30:44;2.40;76.50
68098;DHT22;54886;47.036;15.466;2024-02-16T02:33:10;2.40;76.42
68098;DHT22;54886;47.036;15.466;2024-02-16T02:35:38;2.36;76.69
68098;DHT22;54886;47.036;15.466;2024-02-16T02:38:03;2.38;76.54
68098;DHT22;54886;47.036;15.466;2024-02-16T02:40:30;2.36;76.50
68098;DHT22;54886;47.036;15.466;2024-02-16T02:42:55;2.36;76.59
68098;DHT22;54886;47.036;15.466;2024-02-16T02:45:20;2.34;76.84
68098;DHT22;54886;47.036;15.466;2024-02-16T02:47:46;2.31;76.79
68098;DHT22;54886;47.036;15.466;2024-02-16T02:50:11;2.24;77.21
68098;DHT22;54886;47.036;15.466;2024-02-16T02:52:37;2.17;76.95
68098;DHT22;54886;47.036;15.466;2024-02-16T02:55:03;2.10;76.93
68098;DHT22;54886;47.036;15.466;2024-02-16T02:57:28;2.05;77.47
68098;DHT22;54886;47.036;15.466;2024-02-16T03:00:02;2.06;77.32
68098;DHT22;54886;47.036;15.466;2024-02-16T03:02:29;2.14;76.94
68098;DHT22;54886;47.036;15.466;2024-02-16T03:04:54;2.09;77.04
68098;DHT22;54886;47.036;15.466;2024-02-16T03:07:19;2.09;76.88
68098;DHT22;54886;47.036;15.466;2024-02-16T03:09:45;2.06;77.14
68098;DHT22;54886;47.036;15.466;2024-02-16T03:12:11;2.05;76.99
68098;DHT22;54886;47.036;15.466;2024-02-16T03:14:37;2.00;77.13
68098;DHT22;54886;47.036;15.466;2024-02-16T03:17:02;1.93;77.32
68098;DHT22;54886;47.036;15.466;2024-02-16T03:19:29;1.92;77.59
68098;DHT22;54886;47.036;15.466;2024-02-16T03:21:54;1.95;77.47
68098;DHT22;54886;47.036;15.466;2024-02-16T03:24:20;2.05;77.09
68098;DHT22;54886;47.036;15.466;2024-02-16T03:26:47;1.99;77.42
68098;DHT22;54886;47.036;15.466;2024-02-16T03:29:13;1.89;77.53
68098;DHT22;54886;47.036;15.466;2024-02-16T03:31:38;1.91;77.38
68098;DHT22;54886;47.036;15.466;2024-02-16T03:34:03;1.85;77.76
68098;DHT22;54886;47.036;15.466;2024-02-16T03:36:29;1.86;77.57
68098;DHT22;54886;47.036;15.466;2024-02-16T03:38:55;1.93;77.26
68098;DHT22;54886;47.036;15.466;2024-02-16T03:41:22;1.95;77.21
68098;DHT22;54886;47.036;15.466;2024-02-16T03:43:49;1.85;77.83
68098;DHT22;54886;47.036;15.466;2024-02-16T03:46:15;1.81;77.41
68098;DHT22;54886;47.036;15.466;2024-02-16T03:48:40;1.75;77.88
68098;DHT22;54886;47.036;15.466;2024-02-16T03:51:06;1.82;77.55
68098;DHT22;54886;47.036;15.466;2024-02-16T03:53:31;1.82;77.77
68098;DHT22;54886;47.036;15.466;2024-02-16T03:55:56;1.79;77.56
68098;DHT22;54886;47.036;15.466;2024-02-16T03:58:22;1.79;77.75
68098;DHT22;54886;47.036;15.466;2024-02-16T04:00:48;1.82;77.38
68098;DHT22;54886;47.036;15.466;2024-02-16T04:03:20;1.86;77.31
68098;DHT22;54886;47.036;15.466;2024-02-16T04:05:45;1.85;77.56
68098;DHT22;54886;47.036;15.466;2024-02-16T04:08:11;1.87;77.38
68098;DHT22;54886;47.036;15.466;2024-02-16T04:10:36;1.86;77.43
68098;DHT22;54886;47.036;15.466;2024-02-16T04:13:02;1.72;77.95
68098;DHT22;54886;47.036;15.466;2024-02-16T04:15:28;1.75;77.47
68098;DHT22;54886;47.036;15.466;2024-02-16T04:17:53;1.78;77.31
68098;DHT22;54886;47.036;15.466;2024-02-16T04:20:19;1.71;77.42
68098;DHT22;54886;47.036;15.466;2024-02-16T04:22:45;1.72;77.31
68098;DHT22;54886;47.036;15.466;2024-02-16T04:25:10;1.66;77.48
68098;DHT22;54886;47.036;15.466;2024-02-16T04:27:36;1.65;77.65
68098;DHT22;54886;47.036;15.466;2024-02-16T04:30:05;1.68;77.37
68098;DHT22;54886;47.036;15.466;2024-02-16T04:32:31;1.65;77.40
68098;DHT22;54886;47.036;15.466;2024-02-16T04:34:58;1.64;77.17
68098;DHT22;54886;47.036;15.466;2024-02-16T04:37:24;1.59;77.45
68098;DHT22;54886;47.036;15.466;2024-02-16T04:39:50;1.65;77.26
68098;DHT22;54886;47.036;15.466;2024-02-16T04:42:16;1.62;77.27
68098;DHT22;54886;47.036;15.466;2024-02-16T04:44:42;1.58;77.19
68098;DHT22;54886;47.036;15.466;2024-02-16T04:47:07;1.47;77.63
68098;DHT22;54886;47.036;15.466;2024-02-16T04:49:32;1.50;77.74
68098;DHT22;54886;47.036;15.466;2024-02-16T04:51:58;1.47;77.87
68098;DHT22;54886;47.036;15.466;2024-02-16T04:54:24;1.38;78.01
68098;DHT22;54886;47.036;15.466;2024-02-16T04:56:50;1.43;77.96
68098;DHT22;54886;47.036;15.466;2024-02-16T04:59:16;1.37;77.83
68098;DHT22;54886;47.036;15.466;2024-02-16T05:01:43;1.36;77.61
68098;DHT22;54886;47.036;15.466;2024-02-16T05:04:09;1.37;77.90
68098;DHT22;54886;47.036;15.466;2024-02-16T05:06:41;1.43;78.17
68098;DHT22;54886;47.036;15.466;2024-02-16T05:09:06;1.37;78.39
68098;DHT22;54886;47.036;15.466;2024-02-16T05:11:32;1.37;78.00
68098;DHT22;54886;47.036;15.466;2024-02-16T05:13:58;1.36;78.02
68098;DHT22;54886;47.036;15.466;2024-02-16T05:16:23;1.40;77.83
68098;DHT22;54886;47.036;15.466;2024-02-16T05:18:49;1.38;77.87
68098;DHT22;54886;47.036;15.466;2024-02-16T05:21:14;1.37;77.93
68098;DHT22;54886;47.036;15.466;2024-02-16T05:23:40;1.33;78.11
68098;DHT22;54886;47.036;15.466;2024-02-16T05:26:05;1.30;78.49
68098;DHT22;54886;47.036;15.466;2024-02-16T05:28:31;1.28;77.80
68098;DHT22;54886;47.036;15.466;2024-02-16T05:30:57;1.31;77.96
68098;DHT22;54886;47.036;15.466;2024-02-16T05:33:23;1.34;77.81
68098;DHT22;54886;47.036;15.466;2024-02-16T05:35:48;1.31;77.69
68098;DHT22;54886;47.036;15.466;2024-02-16T05:38:20;1.31;77.92
68098;DHT22;54886;47.036;15.466;2024-02-16T05:40:58;1.27;78.09
68098;DHT22;54886;47.036;15.466;2024-02-16T05:43:23;1.19;78.38
68098;DHT22;54886;47.036;15.466;2024-02-16T05:45:49;1.16;78.08
68098;DHT22;54886;47.036;15.466;2024-02-16T05:48:15;1.22;77.92
68098;DHT22;54886;47.036;15.466;2024-02-16T05:50:41;1.27;77.84
68098;DHT22;54886;47.036;15.466;2024-02-16T05:53:07;1.30;77.98
68098;DHT22;54886;47.036;15.466;2024-02-16T05:55:36;1.20;78.55
68098;DHT22;54886;47.036;15.466;2024-02-16T05:58:01;1.16;78.20
68098;DHT22;54886;47.036;15.466;2024-02-16T06:00:26;1.17;78.38
68098;DHT22;54886;47.036;15.466;2024-02-16T06:02:52;1.17;78.52
68098;DHT22;54886;47.036;15.466;2024-02-16T06:05:18;1.16;78.54
68098;DHT22;54886;47.036;15.466;2024-02-16T06:07:45;1.15;78.83
68098;DHT22;54886;47.036;15.466;2024-02-16T06:10:10;1.16;78.47
68098;DHT22;54886;47.036;15.466;2024-02-16T06:12:37;1.15;79.12
68098;DHT22;54886;47.036;15.466;2024-02-16T06:15:04;1.17;78.33
68098;DHT22;54886;47.036;15.466;2024-02-16T06:17:29;1.20;79.04
68098;DHT22;54886;47.036;15.466;2024-02-16T06:19:55;1.22;78.96
68098;DHT22;54886;47.036;15.466;2024-02-16T06:22:20;1.24;79.17
68098;DHT22;54886;47.036;15.466;2024-02-16T06:24:46;1.22;79.38
68098;DHT22;54886;47.036;15.466;2024-02-16T06:27:11;1.24;79.08
68098;DHT22;54886;47.036;15.466;2024-02-16T06:29:36;1.26;80.25
68098;DHT22;54886;47.036;15.466;2024-02-16T06:32:02;1.28;80.09
68098;DHT22;54886;47.036;15.466;2024-02-16T06:34:27;1.34;79.93
68098;DHT22;54886;47.036;15.466;2024-02-16T06:36:53;1.37;79.66
68098;DHT22;54886;47.036;15.466;2024-02-16T06:39:18;1.40;79.11
68098;DHT22;54886;47.036;15.466;2024-02-16T06:41:45;1.45;78.84
68098;DHT22;54886;47.036;15.466;2024-02-16T06:44:14;1.48;78.36
68098;DHT22;54886;47.036;15.466;2024-02-16T06:46:40;1.52;78.96
68098;DHT22;54886;47.036;15.466;2024-02-16T06:49:05;1.56;78.67
68098;DHT22;54886;47.036;15.466;2024-02-16T06:51:31;1.56;80.04
68098;DHT22;54886;47.036;15.466;2024-02-16T06:53:56;1.61;81.10
68098;DHT22;54886;47.036;15.466;2024-02-16T06:56:22;1.62;79.37
68098;DHT22;54886;47.036;15.466;2024-02-16T06:58:47;1.65;79.41
68098;DHT22;54886;47.036;15.466;2024-02-16T07:01:13;1.71;79.68
68098;DHT22;54886;47.036;15.466;2024-02-16T07:03:39;1.71;79.70
68098;DHT22;54886;47.036;15.466;2024-02-16T07:06:05;1.76;79.27
68098;DHT22;54886;47.036;15.466;2024-02-16T07:08:35;1.75;79.43
68098;DHT22;54886;47.036;15.466;2024-02-16T07:11:00;1.79;79.78
68098;DHT22;54886;47.036;15.466;2024-02-16T07:13:26;1.82;80.25
68098;DHT22;54886;47.036;15.466;2024-02-16T07:15:51;1.85;82.24
68098;DHT22;54886;47.036;15.466;2024-02-16T07:18:16;1.86;82.16
68098;DHT22;54886;47.036;15.466;2024-02-16T07:20:42;1.87;81.38
68098;DHT22;54886;47.036;15.466;2024-02-16T07:23:07;1.91;82.54
68098;DHT22;54886;47.036;15.466;2024-02-16T07:25:35;1.89;80.83
68098;DHT22;54886;47.036;15.466;2024-02-16T07:28:00;1.92;80.49
68098;DHT22;54886;47.036;15.466;2024-02-16T07:30:25;1.96;80.57
68098;DHT22;54886;47.036;15.466;2024-02-16T07:32:51;1.98;80.94
68098;DHT22;54886;47.036;15.466;2024-02-16T07:35:20;2.05;81.92
68098;DHT22;54886;47.036;15.466;2024-02-16T07:37:50;2.10;83.28
68098;DHT22;54886;47.036;15.466;2024-02-16T07:40:17;2.16;82.31
68098;DHT22;54886;47.036;15.466;2024-02-16T07:42:43;2.21;82.42
68098;DHT22;54886;47.036;15.466;2024-02-16T07:45:10;2.26;82.95
68098;DHT22;54886;47.036;15.466;2024-02-16T07:47:37;2.33;83.04
68098;DHT22;54886;47.036;15.466;2024-02-16T07:50:02;2.40;83.11
68098;DHT22;54886;47.036;15.466;2024-02-16T07:52:28;2.44;83.19
68098;DHT22;54886;47.036;15.466;2024-02-16T07:54:54;2.51;83.21
68098;DHT22;54886;47.036;15.466;2024-02-16T07:57:19;2.55;83.07
68098;DHT22;54886;47.036;15.466;2024-02-16T07:59:45;2.62;83.30
68098;DHT22;54886;47.036;15.466;2024-02-16T08:02:11;2.69;83.20
68098;DHT22;54886;47.036;15.466;2024-02-16T08:04:40;2.72;82.77
68098;DHT22;54886;47.036;15.466;2024-02-16T08:07:06;2.78;82.76
68098;DHT22;54886;47.036;15.466;2024-02-16T08:09:31;2.83;83.31
68098;DHT22;54886;47.036;15.466;2024-02-16T08:11:57;2.88;82.78
68098;DHT22;54886;47.036;15.466;2024-02-16T08:14:22;2.96;82.83
68098;DHT22;54886;47.036;15.466;2024-02-16T08:16:47;2.99;82.65
68098;DHT22;54886;47.036;15.466;2024-02-16T08:19:14;3.04;82.98
68098;DHT22;54886;47.036;15.466;2024-02-16T08:21:39;3.10;83.16
68098;DHT22;54886;47.036;15.466;2024-02-16T08:24:05;3.16;82.66
68098;DHT22;54886;47.036;15.466;2024-02-16T08:26:30;3.19;83.01
68098;DHT22;54886;47.036;15.466;2024-02-16T08:28:56;3.27;82.62
68098;DHT22;54886;47.036;15.466;2024-02-16T08:31:21;3.32;83.34
68098;DHT22;54886;47.036;15.466;2024-02-16T08:33:47;3.39;82.96
68098;DHT22;54886;47.036;15.466;2024-02-16T08:36:13;3.45;83.03
68098;DHT22;54886;47.036;15.466;2024-02-16T08:38:39;3.51;82.98
68098;DHT22;54886;47.036;15.466;2024-02-16T08:41:04;3.56;82.80
68098;DHT22;54886;47.036;15.466;2024-02-16T08:43:30;3.64;82.70
68098;DHT22;54886;47.036;15.466;2024-02-16T08:45:55;3.68;82.58
68098;DHT22;54886;47.036;15.466;2024-02-16T08:48:22;3.78;82.48
68098;DHT22;54886;47.036;15.466;2024-02-16T08:50:47;3.82;83.01
68098;DHT22;54886;47.036;15.466;2024-02-16T08:53:13;3.90;83.56
68098;DHT22;54886;47.036;15.466;2024-02-16T08:55:39;3.99;83.28
68098;DHT22;54886;47.036;15.466;2024-02-16T08:58:07;4.10;82.72
68098;DHT22;54886;47.036;15.466;2024-02-16T09:00:32;4.13;82.44
68098;DHT22;54886;47.036;15.466;2024-02-16T09:02:58;4.28;83.11
68098;DHT22;54886;47.036;15.466;2024-02-16T09:05:23;4.31;82.49
68098;DHT22;54886;47.036;15.466;2024-02-16T09:07:49;4.38;82.78
68098;DHT22;54886;47.036;15.466;2024-02-16T09:10:14;4.42;82.57
68098;DHT22;54886;47.036;15.466;2024-02-16T09:12:40;4.49;82.25
68098;DHT22;54886;47.036;15.466;2024-02-16T09:15:06;4.57;82.35
68098;DHT22;54886;47.036;15.466;2024-02-16T09:17:31;4.65;81.79
68098;DHT22;54886;47.036;15.466;2024-02-16T09:19:57;4.71;82.12
68098;DHT22;54886;47.036;15.466;2024-02-16T09:22:22;4.80;82.29
68098;DHT22;54886;47.036;15.466;2024-02-16T09:24:48;4.89;82.73
68098;DHT22;54886;47.036;15.466;2024-02-16T09:27:13;5.03;82.25
68098;DHT22;54886;47.036;15.466;2024-02-16T09:29:39;5.04;82.42
68098;DHT22;54886;47.036;15.466;2024-02-16T09:32:05;5.16;82.14
68098;DHT22;54886;47.036;15.466;2024-02-16T09:34:31;5.26;81.80
68098;DHT22;54886;47.036;15.466;2024-02-16T09:36:56;5.31;81.96
68098;DHT22;54886;47.036;15.466;2024-02-16T09:39:22;5.41;82.17
68098;DHT22;54886;47.036;15.466;2024-02-16T09:41:50;5.48;81.47
68098;DHT22;54886;47.036;15.466;2024-02-16T09:44:17;5.56;81.52
68098;DHT22;54886;47.036;15.466;2024-02-16T09:46:43;5.62;80.82
68098;DHT22;54886;47.036;15.466;2024-02-16T09:49:08;5.72;80.63
68098;DHT22;54886;47.036;15.466;2024-02-16T09:51:37;5.77;80.65
68098;DHT22;54886;47.036;15.466;2024-02-16T09:54:03;5.87;80.76
68098;DHT22;54886;47.036;15.466;2024-02-16T09:56:29;5.93;80.50
68098;DHT22;54886;47.036;15.466;2024-02-16T09:58:55;6.02;80.60
68098;DHT22;54886;47.036;15.466;2024-02-16T10:01:22;6.04;79.72
68098;DHT22;54886;47.036;15.466;2024-02-16T10:03:48;6.16;79.82
68098;DHT22;54886;47.036;15.466;2024-02-16T10:06:16;6.20;79.71
68098;DHT22;54886;47.036;15.466;2024-02-16T10:08:52;6.22;79.44
68098;DHT22;54886;47.036;15.466;2024-02-16T10:11:25;6.30;79.34
68098;DHT22;54886;47.036;15.466;2024-02-16T10:13:58;6.38;79.68
68098;DHT22;54886;47.036;15.466;2024-02-16T10:16:24;6.61;79.43
68098;DHT22;54886;47.036;15.466;2024-02-16T10:18:50;6.68;78.68
68098;DHT22;54886;47.036;15.466;2024-02-16T10:21:28;6.75;78.76
68098;DHT22;54886;47.036;15.466;2024-02-16T10:24:01;6.83;79.06
68098;DHT22;54886;47.036;15.466;2024-02-16T10:26:28;6.92;78.59
68098;DHT22;54886;47.036;15.466;2024-02-16T10:28:55;6.94;78.52
68098;DHT22;54886;47.036;15.466;2024-02-16T10:31:25;7.05;78.79
68098;DHT22;54886;47.036;15.466;2024-02-16T10:33:59;7.15;78.43
68098;DHT22;54886;47.036;15.466;2024-02-16T10:36:25;7.21;78.39
68098;DHT22;54886;47.036;15.466;2024-02-16T10:38:54;7.30;78.34
68098;DHT22;54886;47.036;15.466;2024-02-16T10:41:20;7.47;77.98
68098;DHT22;54886;47.036;15.466;2024-02-16T10:43:48;7.59;78.10
68098;DHT22;54886;47.036;15.466;2024-02-16T10:46:15;7.61;77.63
68098;DHT22;54886;47.036;15.466;2024-02-16T10:48:41;7.63;77.55
68098;DHT22;54886;47.036;15.466;2024-02-16T10:51:09;7.75;77.48
68098;DHT22;54886;47.036;15.466;2024-02-16T10:53:35;7.80;77.05
68098;DHT22;54886;47.036;15.466;2024-02-16T10:56:01;7.83;76.46
68098;DHT22;54886;47.036;15.466;2024-02-16T10:58:30;7.85;76.76
68098;DHT22;54886;47.036;15.466;2024-02-16T11:00:56;8.00;76.12
68098;DHT22;54886;47.036;15.466;2024-02-16T11:03:26;8.01;75.47
68098;DHT22;54886;47.036;15.466;2024-02-16T11:05:52;8.04;75.93
68098;DHT22;54886;47.036;15.466;2024-02-16T11:08:23;8.17;75.19
68098;DHT22;54886;47.036;15.466;2024-02-16T11:10:58;8.20;75.17
68098;DHT22;54886;47.036;15.466;2024-02-16T11:13:25;8.23;74.86
68098;DHT22;54886;47.036;15.466;2024-02-16T11:16:01;8.34;75.01
68098;DHT22;54886;47.036;15.466;2024-02-16T11:18:29;8.44;75.16
68098;DHT22;54886;47.036;15.466;2024-02-16T11:20:54;8.53;74.55
68098;DHT22;54886;47.036;15.466;2024-02-16T11:23:27;8.59;73.99
68098;DHT22;54886;47.036;15.466;2024-02-16T11:25:53;8.62;73.91
68098;DHT22;54886;47.036;15.466;2024-02-16T11:28:19;8.69;73.59
68098;DHT22;54886;47.036;15.466;2024-02-16T11:30:44;8.73;73.83
68098;DHT22;54886;47.036;15.466;2024-02-16T11:33:12;8.83;73.30
68098;DHT22;54886;47.036;15.466;2024-02-16T11:35:38;8.87;73.34
68098;DHT22;54886;47.036;15.466;2024-02-16T11:38:04;8.90;73.40
68098;DHT22;54886;47.036;15.466;2024-02-16T11:40:30;9.00;72.82
68098;DHT22;54886;47.036;15.466;2024-02-16T11:42:59;9.08;73.01
68098;DHT22;54886;47.036;15.466;2024-02-16T11:45:25;9.10;72.49
68098;DHT22;54886;47.036;15.466;2024-02-16T11:48:02;9.17;71.88
68098;DHT22;54886;47.036;15.466;2024-02-16T11:50:27;9.24;72.10
68098;DHT22;54886;47.036;15.466;2024-02-16T11:52:52;9.23;71.75
68098;DHT22;54886;47.036;15.466;2024-02-16T11:55:18;9.30;71.95
68098;DHT22;54886;47.036;15.466;2024-02-16T11:57:43;9.43;71.37
68098;DHT22;54886;47.036;15.466;2024-02-16T12:00:14;9.52;71.00
68098;DHT22;54886;47.036;15.466;2024-02-16T12:02:40;9.49;70.95
68098;DHT22;54886;47.036;15.466;2024-02-16T12:05:06;9.58;70.51
68098;DHT22;54886;47.036;15.466;2024-02-16T12:07:32;9.58;70.91
68098;DHT22;54886;47.036;15.466;2024-02-16T12:10:00;9.63;70.71
68098;DHT22;54886;47.036;15.466;2024-02-16T12:12:26;9.66;70.36
68098;DHT22;54886;47.036;15.466;2024-02-16T12:14:52;9.73;70.43
68098;DHT22;54886;47.036;15.466;2024-02-16T12:17:18;9.76;70.74
68098;DHT22;54886;47.036;15.466;2024-02-16T12:19:45;9.82;70.42
68098;DHT22;54886;47.036;15.466;2024-02-16T12:22:10;9.86;70.47
68098;DHT22;54886;47.036;15.466;2024-02-16T12:24:37;9.90;69.93
68098;DHT22;54886;47.036;15.466;2024-02-16T12:27:03;9.96;69.82
68098;DHT22;54886;47.036;15.466;2024-02-16T12:29:28;10.00;69.85
68098;DHT22;54886;47.036;15.466;2024-02-16T12:31:53;10.06;69.15
68098;DHT22;54886;47.036;15.466;2024-02-16T12:34:19;10.10;69.09
68098;DHT22;54886;47.036;15.466;2024-02-16T12:36:44;10.17;68.63
68098;DHT22;54886;47.036;15.466;2024-02-16T12:39:10;10.21;68.82
68098;DHT22;54886;47.036;15.466;2024-02-16T12:41:38;10.22;68.83
68098;DHT22;54886;47.036;15.466;2024-02-16T12:44:04;10.30;68.59
68098;DHT22;54886;47.036;15.466;2024-02-16T12:46:30;10.34;68.65
68098;DHT22;54886;47.036;15.466;2024-02-16T12:48:56;10.35;68.14
68098;DHT22;54886;47.036;15.466;2024-02-16T12:51:21;10.40;68.28
68098;DHT22;54886;47.036;15.466;2024-02-16T12:53:47;10.51;67.87
68098;DHT22;54886;47.036;15.466;2024-02-16T12:56:13;10.51;68.11
68098;DHT22;54886;47.036;15.466;2024-02-16T12:58:38;10.59;67.42
68098;DHT22;54886;47.036;15.466;2024-02-16T13:01:05;10.62;67.46
68098;DHT22;54886;47.036;15.466;2024-02-16T13:03:34;10.68;67.18
68098;DHT22;54886;47.036;15.466;2024-02-16T13:06:00;10.79;66.18
68098;DHT22;54886;47.036;15.466;2024-02-16T13:08:25;10.81;65.88
68098;DHT22;54886;47.036;15.466;2024-02-16T13:10:50;10.80;65.75
68098;DHT22;54886;47.036;15.466;2024-02-16T13:13:16;10.83;66.05
68098;DHT22;54886;47.036;15.466;2024-02-16T13:15:41;10.84;65.74
68098;DHT22;54886;47.036;15.466;2024-02-16T13:18:06;10.86;65.72
68098;DHT22;54886;47.036;15.466;2024-02-16T13:20:32;10.92;65.51
68098;DHT22;54886;47.036;15.466;2024-02-16T13:22:59;10.96;65.43
68098;DHT22;54886;47.036;15.466;2024-02-16T13:25:25;11.00;64.98
68098;DHT22;54886;47.036;15.466;2024-02-16T13:27:50;10.97;65.15
68098;DHT22;54886;47.036;15.466;2024-02-16T13:30:15;11.01;64.65
68098;DHT22;54886;47.036;15.466;2024-02-16T13:32:41;11.08;64.28
68098;DHT22;54886;47.036;15.466;2024-02-16T13:35:06;11.11;63.73
68098;DHT22;54886;47.036;15.466;2024-02-16T13:37:32;11.10;63.96
68098;DHT22;54886;47.036;15.466;2024-02-16T13:39:57;11.17;63.77
68098;DHT22;54886;47.036;15.466;2024-02-16T13:42:23;11.13;63.83
68098;DHT22;54886;47.036;15.466;2024-02-16T13:44:49;11.14;63.37
68098;DHT22;54886;47.036;15.466;2024-02-16T13:47:14;11.15;64.28
68098;DHT22;54886;47.036;15.466;2024-02-16T13:49:40;11.23;64.03
68098;DHT22;54886;47.036;15.466;2024-02-16T13:52:05;11.31;63.85
68098;DHT22;54886;47.036;15.466;2024-02-16T13:54:31;11.32;63.59
68098;DHT22;54886;47.036;15.466;2024-02-16T13:56:56;11.28;64.16
68098;DHT22;54886;47.036;15.466;2024-02-16T13:59:22;11.30;64.41
68098;DHT22;54886;47.036;15.466;2024-02-16T14:01:48;11.28;64.18
68098;DHT22;54886;47.036;15.466;2024-02-16T14:04:14;11.30;64.47
68098;DHT22;54886;47.036;15.466;2024-02-16T14:06:40;11.32;64.33
68098;DHT22;54886;47.036;15.466;2024-02-16T14:09:05;11.30;64.24
68098;DHT22;54886;47.036;15.466;2024-02-16T14:11:37;11.32;63.64
68098;DHT22;54886;47.036;15.466;2024-02-16T14:14:04;11.31;64.17
68098;DHT22;54886;47.036;15.466;2024-02-16T14:16:29;11.31;64.59
68098;DHT22;54886;47.036;15.466;2024-02-16T14:18:56;11.30;64.78
68098;DHT22;54886;47.036;15.466;2024-02-16T14:21:21;11.34;64.98
68098;DHT22;54886;47.036;15.466;2024-02-16T14:23:46;11.36;64.70
68098;DHT22;54886;47.036;15.466;2024-02-16T14:26:12;11.36;64.94
68098;DHT22;54886;47.036;15.466;2024-02-16T14:28:37;11.34;64.91
68098;DHT22;54886;47.036;15.466;2024-02-16T14:31:02;11.35;65.17
68098;DHT22;54886;47.036;15.466;2024-02-16T14:33:28;11.38;65.17
68098;DHT22;54886;47.036;15.466;2024-02-16T14:35:53;11.39;65.17
68098;DHT22;54886;47.036;15.466;2024-02-16T14:38:19;11.39;64.72
68098;DHT22;54886;47.036;15.466;2024-02-16T14:40:44;11.45;64.41
68098;DHT22;54886;47.036;15.466;2024-02-16T14:43:09;11.42;65.06
68098;DHT22;54886;47.036;15.466;2024-02-16T14:45:35;11.41;64.53
68098;DHT22;54886;47.036;15.466;2024-02-16T14:48:04;11.39;64.64
68098;DHT22;54886;47.036;15.466;2024-02-16T14:50:30;11.38;64.92
68098;DHT22;54886;47.036;15.466;2024-02-16T14:52:56;11.41;64.69
68098;DHT22;54886;47.036;15.466;2024-02-16T14:55:21;11.41;64.55
68098;DHT22;54886;47.036;15.466;2024-02-16T14:57:47;11.39;64.69
68098;DHT22;54886;47.036;15.466;2024-02-16T15:00:13;11.39;64.99
68098;DHT22;54886;47.036;15.466;2024-02-16T15:02:39;11.36;64.86
68098;DHT22;54886;47.036;15.466;2024-02-16T15:05:07;11.39;64.60
68098;DHT22;54886;47.036;15.466;2024-02-16T15:07:32;11.35;64.42
68098;DHT22;54886;47.036;15.466;2024-02-16T15:09:58;11.39;63.70
68098;DHT22;54886;47.036;15.466;2024-02-16T15:12:23;11.39;63.94
68098;DHT22;54886;47.036;15.466;2024-02-16T15:14:49;11.39;64.40
68098;DHT22;54886;47.036;15.466;2024-02-16T15:17:15;11.36;64.27
68098;DHT22;54886;47.036;15.466;2024-02-16T15:19:41;11.36;64.56